Terminal Aerodrome Forecast
Issued by NWS Cleveland, OH

Home | Current Version | Previous Version | Text Only | Print | Product List | Glossary On
Versions: 1 2 3 4 5 6 7 8 9 10 11 12 13 14 15
000
FTUS41 KCLE 031136
TAFTOL
TAF
KTOL 031136Z 0312/0412 07004KT P6SM SKC
     FM031800 07006KT P6SM BKN150
     FM040300 VRB03KT P6SM SCT250
     FM041030 VRB03KT 5SM BR SCT250=

USA.gov is the U.S. government's official web portal to all federal, state and local government web resources and services.